Time;durP1;ratioP1;P1;durP2;ratioP2;P2;SDS_P1;SDS_P2;PMS_P1;PMS_P2;Temp;Humidity;BMP_temperature;BMP_pressure;BME280_temperature;BME280_humidity;BME280_pressure;Samples;Min_cycle;Max_cycle;Signal;HPM_P1;HPM_P2
2022/03/07 00:00:33;;;;;;;9.90;8.83;;;;;;;7.59;33.55;99330.72;6920789;28;20223;-81
2022/03/07 00:03:54;;;;;;;9.53;8.57;;;;;;;7.64;33.38;99323.81;6920359;28;20712;-81
2022/03/07 00:07:16;;;;;;;13.37;9.27;;;;;;;7.11;34.63;99331.69;6920617;28;20344;-82
2022/03/07 00:10:39;;;;;;;10.73;9.63;;;;;;;6.73;35.35;99300.22;6932736;28;20360;-80
2022/03/07 00:14:01;;;;;;;11.13;9.53;;;;;;;6.61;35.66;99320.34;6946022;28;20274;-81
2022/03/07 00:17:22;;;;;;;9.47;8.43;;;;;;;6.09;36.83;99336.88;6945931;28;20242;-81
2022/03/07 00:20:44;;;;;;;12.07;9.97;;;;;;;6.94;35.61;99326.50;6945765;28;20322;-81
2022/03/07 00:24:06;;;;;;;10.90;9.37;;;;;;;7.11;35.20;99328.16;6945074;28;20234;-81
2022/03/07 00:27:29;;;;;;;9.50;8.60;;;;;;;7.17;34.76;99331.00;6946146;28;20250;-82
2022/03/07 00:30:51;;;;;;;9.77;8.83;;;;;;;7.24;34.36;99304.38;6945912;28;20286;-81
2022/03/07 00:34:13;;;;;;;9.63;8.27;;;;;;;6.83;34.85;99332.25;6946344;28;20593;-82
2022/03/07 00:37:35;;;;;;;9.20;8.30;;;;;;;5.82;35.78;99283.59;6946753;28;20230;-82
2022/03/07 00:40:57;;;;;;;11.00;7.97;;;;;;;6.81;34.84;99336.91;6946916;28;20233;-82
2022/03/07 00:44:20;;;;;;;9.37;8.37;;;;;;;6.59;35.07;99340.25;6962946;28;20252;-82
2022/03/07 00:47:41;;;;;;;8.77;7.87;;;;;;;6.43;35.57;99341.09;6972811;28;20632;-82
2022/03/07 00:51:03;;;;;;;10.43;7.70;;;;;;;6.85;34.57;99336.41;6972342;28;20293;-80
2022/03/07 00:54:24;;;;;;;10.10;7.27;;;;;;;6.93;34.89;99347.13;6973797;28;20713;-82
2022/03/07 00:57:46;;;;;;;11.47;8.10;;;;;;;6.83;35.02;99341.09;6974447;28;20264;-82
2022/03/07 01:01:09;;;;;;;8.60;7.20;;;;;;;6.49;35.24;99299.44;6974044;28;20793;-83
2022/03/07 01:04:31;;;;;;;10.03;7.53;;;;;;;6.30;35.06;99276.47;6973014;28;20215;-83
2022/03/07 01:07:52;;;;;;;13.77;7.47;;;;;;;6.24;34.75;99319.16;6973564;28;20198;-82
2022/03/07 01:11:14;;;;;;;7.93;6.80;;;;;;;6.12;36.18;99326.66;6973965;28;20216;-83
2022/03/07 01:14:35;;;;;;;8.07;6.67;;;;;;;6.18;35.23;99331.34;6972218;28;20356;-82
2022/03/07 01:17:59;;;;;;;7.87;7.07;;;;;;;6.11;35.06;99340.19;6973287;28;20303;-82
2022/03/07 01:21:21;;;;;;;8.13;6.90;;;;;;;5.53;35.98;99345.50;6974332;28;20213;-82
2022/03/07 01:24:42;;;;;;;7.90;7.10;;;;;;;6.51;34.66;99338.44;6957956;28;20227;-82
2022/03/07 01:28:04;;;;;;;8.60;6.93;;;;;;;6.41;34.71;99326.19;6945356;28;20543;-81
2022/03/07 01:31:26;;;;;;;9.20;7.57;;;;;;;6.30;34.66;99326.53;6944940;28;20293;-82
2022/03/07 01:34:49;;;;;;;7.87;6.70;;;;;;;5.66;35.10;99292.38;6945870;28;20252;-81
2022/03/07 01:38:10;;;;;;;8.43;7.47;;;;;;;5.08;36.34;99323.53;6946472;28;20214;-81
2022/03/07 01:41:33;;;;;;;9.57;7.37;;;;;;;5.25;36.99;99324.47;6946419;28;20228;-82
2022/03/07 01:44:54;;;;;;;6.90;6.23;;;;;;;5.24;36.58;99318.28;6945120;28;20226;-82
2022/03/07 01:48:16;;;;;;;7.57;6.90;;;;;;;4.66;37.06;99306.56;6945349;28;20682;-81
2022/03/07 01:51:39;;;;;;;9.53;7.50;;;;;;;5.06;36.42;99301.47;6945557;28;20345;-82
2022/03/07 01:55:01;;;;;;;10.17;7.77;;;;;;;5.64;35.73;99315.78;6948275;28;20260;-81
2022/03/07 01:58:23;;;;;;;11.40;7.47;;;;;;;5.97;34.92;99311.41;6943835;28;20271;-81
2022/03/07 02:01:45;;;;;;;8.70;7.80;;;;;;;5.50;35.16;99257.59;6943609;28;20249;-81
2022/03/07 02:05:07;;;;;;;8.63;7.33;;;;;;;5.48;35.32;99288.97;6944834;28;20626;-81
2022/03/07 02:08:30;;;;;;;8.60;7.80;;;;;;;4.37;36.41;99254.44;6946319;28;20214;-81
2022/03/07 02:11:52;;;;;;;8.83;7.93;;;;;;;5.21;35.31;99281.19;6946751;28;20670;-81
2022/03/07 02:15:13;;;;;;;10.53;7.60;;;;;;;4.77;35.37;99244.06;6945609;28;20589;-82
2022/03/07 02:18:35;;;;;;;8.67;7.33;;;;;;;4.49;36.10;99240.66;6944158;28;20217;-82
2022/03/07 02:22:00;;;;;;;9.87;8.30;;;;;;;5.18;35.64;99280.69;6943752;28;20228;-79
2022/03/07 02:25:22;;;;;;;9.83;7.83;;;;;;;5.05;35.81;99305.16;6943638;28;20195;-79
2022/03/07 02:28:44;;;;;;;10.50;8.00;;;;;;;5.23;35.29;99313.94;6943038;28;20213;-79
2022/03/07 02:32:08;;;;;;;7.93;7.13;;;;;;;5.49;35.01;99309.38;6941951;28;20287;-79
2022/03/07 02:35:30;;;;;;;9.47;8.00;;;;;;;5.42;34.37;99238.00;6944887;28;20296;-79
2022/03/07 02:38:53;;;;;;;8.20;7.40;;;;;;;5.81;33.99;99298.84;6940826;28;20213;-80
2022/03/07 02:42:14;;;;;;;10.37;7.87;;;;;;;5.96;34.33;99297.19;6939935;28;20258;-79
2022/03/07 02:45:36;;;;;;;9.27;8.33;;;;;;;5.59;34.59;99304.75;6942124;28;20277;-79
2022/03/07 02:48:57;;;;;;;8.20;7.40;;;;;;;5.73;34.36;99289.91;6942105;28;20214;-78
2022/03/07 02:52:19;;;;;;;9.83;8.10;;;;;;;5.67;34.57;99279.88;6941478;28;20333;-79
2022/03/07 02:55:42;;;;;;;8.47;7.57;;;;;;;5.79;34.27;99279.38;6946424;28;20229;-80
2022/03/07 02:59:04;;;;;;;9.67;8.37;;;;;;;5.15;35.26;99244.41;6945587;28;20203;-79
2022/03/07 03:02:25;;;;;;;9.67;8.63;;;;;;;5.30;35.26;99295.44;6945470;28;20241;-79
2022/03/07 03:05:47;;;;;;;10.60;8.80;;;;;;;5.07;35.10;99260.41;6942838;28;20286;-78
2022/03/07 03:09:08;;;;;;;10.20;8.23;;;;;;;5.18;34.94;99270.81;6940853;28;20300;-78
2022/03/07 03:12:31;;;;;;;8.83;8.00;;;;;;;4.91;35.98;99291.53;6940802;28;20223;-79
2022/03/07 03:15:54;;;;;;;10.30;8.13;;;;;;;4.22;36.84;99270.19;6945609;28;20202;-79
2022/03/07 03:19:15;;;;;;;9.00;8.10;;;;;;;5.21;35.45;99293.72;6948136;28;20223;-79
2022/03/07 03:22:37;;;;;;;8.93;8.03;;;;;;;4.93;35.64;99244.13;6946197;28;20238;-78
2022/03/07 03:25:59;;;;;;;9.07;7.50;;;;;;;5.08;35.78;99256.72;6946364;28;20240;-79
2022/03/07 03:29:23;;;;;;;9.60;8.30;;;;;;;5.14;35.19;99252.59;6945912;28;20273;-78
2022/03/07 03:33:31;;;;;;;10.77;8.27;;;;;;;5.01;35.04;99313.66;6948442;28;20716;-79
2022/03/07 03:36:53;;;;;;;11.80;8.90;;;;;;;4.60;36.94;99301.84;6946572;28;20209;-79
2022/03/07 03:40:14;;;;;;;11.77;8.57;;;;;;;4.76;36.54;99309.97;6945877;28;20689;-78
2022/03/07 03:43:36;;;;;;;10.13;8.87;;;;;;;4.83;36.58;99294.16;6945125;28;20316;-80
2022/03/07 03:46:59;;;;;;;9.97;8.60;;;;;;;5.07;35.98;99311.16;6948814;28;20207;-80
2022/03/07 03:50:21;;;;;;;9.13;7.97;;;;;;;4.82;36.41;99301.34;6947825;28;20624;-81
2022/03/07 03:53:42;;;;;;;11.13;8.20;;;;;;;4.46;37.15;99315.75;6947279;28;20246;-80
2022/03/07 03:57:04;;;;;;;9.63;8.63;;;;;;;3.96;38.28;99261.25;6948330;28;20680;-81
2022/03/07 04:00:28;;;;;;;9.27;8.37;;;;;;;4.77;37.20;99325.00;6948143;28;20283;-81
2022/03/07 04:03:51;;;;;;;10.93;9.13;;;;;;;4.62;37.40;99272.31;6948819;28;20233;-80
2022/03/07 04:07:12;;;;;;;9.83;8.80;;;;;;;4.97;37.21;99301.59;6949038;28;20207;-80
2022/03/07 04:10:34;;;;;;;10.23;8.63;;;;;;;4.52;37.88;99307.13;6950038;28;20239;-81
2022/03/07 04:13:56;;;;;;;11.27;10.07;;;;;;;4.65;37.50;99277.34;6950514;28;20236;-80
2022/03/07 04:17:17;;;;;;;10.33;8.93;;;;;;;4.89;37.24;99313.06;6944352;28;20205;-81
2022/03/07 04:20:40;;;;;;;13.07;10.33;;;;;;;4.82;37.80;99312.00;6945609;28;20189;-81
2022/03/07 04:24:02;;;;;;;12.33;9.03;;;;;;;4.02;38.23;99236.63;6944381;28;20302;-80
2022/03/07 04:27:24;;;;;;;10.97;9.07;;;;;;;4.62;38.42;99313.22;6945430;28;20209;-81
2022/03/07 04:30:46;;;;;;;10.57;9.13;;;;;;;4.55;38.71;99309.47;6945305;28;20245;-81
2022/03/07 04:34:09;;;;;;;12.40;9.60;;;;;;;4.27;38.72;99302.59;6944582;28;20234;-81
2022/03/07 04:37:32;;;;;;;14.47;10.00;;;;;;;4.39;38.44;99273.81;6945225;28;20202;-81
2022/03/07 04:40:54;;;;;;;12.50;9.90;;;;;;;4.81;38.01;99330.88;6945014;28;20205;-80
2022/03/07 04:44:15;;;;;;;12.43;10.07;;;;;;;4.68;38.55;99331.28;6944196;28;20624;-81
2022/03/07 04:47:37;;;;;;;12.57;10.00;;;;;;;4.61;38.00;99343.56;6944996;28;20295;-81
2022/03/07 04:50:59;;;;;;;22.93;15.87;;;;;;;4.50;38.80;99343.81;6945148;28;20687;-81
2022/03/07 04:54:22;;;;;;;13.17;10.87;;;;;;;3.94;39.81;99345.94;6943927;28;20230;-82
2022/03/07 04:57:44;;;;;;;12.33;10.80;;;;;;;4.05;39.47;99316.38;6944589;28;20240;-80
2022/03/07 05:01:06;;;;;;;13.53;11.00;;;;;;;4.04;40.02;99346.72;6944174;28;20294;-81
2022/03/07 05:04:28;;;;;;;13.57;10.97;;;;;;;3.96;40.39;99356.47;6943599;28;20316;-80
2022/03/07 05:07:49;;;;;;;17.00;11.07;;;;;;;3.69;40.37;99336.00;6944308;28;20291;-81
2022/03/07 05:11:12;;;;;;;11.20;9.87;;;;;;;4.11;40.10;99357.59;6943670;28;20674;-80
2022/03/07 05:14:34;;;;;;;12.00;9.87;;;;;;;4.37;39.31;99359.38;6943147;28;20232;-81
2022/03/07 05:17:55;;;;;;;13.80;10.87;;;;;;;4.32;40.10;99345.63;6942245;28;20272;-80
2022/03/07 05:21:17;;;;;;;15.30;11.43;;;;;;;4.14;40.21;99343.97;6944764;28;20368;-82
2022/03/07 05:24:39;;;;;;;16.83;11.90;;;;;;;4.28;39.55;99344.28;6944322;28;20593;-81
2022/03/07 05:28:02;;;;;;;14.27;11.23;;;;;;;3.94;40.58;99337.06;6945054;28;20722;-80
2022/03/07 05:31:23;;;;;;;15.23;11.83;;;;;;;3.77;40.22;99362.75;6944541;28;20249;-81
2022/03/07 05:34:45;;;;;;;15.20;12.40;;;;;;;3.32;41.22;99283.72;6944175;28;20226;-81
2022/03/07 05:38:10;;;;;;;15.50;11.30;;;;;;;3.30;41.50;99291.03;6946283;28;20696;-83
2022/03/07 05:41:32;;;;;;;16.17;12.40;;;;;;;3.35;41.48;99371.34;6930316;28;20324;-80
2022/03/07 05:44:55;;;;;;;14.43;12.50;;;;;;;3.65;41.80;99379.94;6956573;28;20358;-82
2022/03/07 05:48:17;;;;;;;15.10;11.47;;;;;;;3.71;40.67;99327.84;6945859;28;20199;-83
2022/03/07 05:51:41;;;;;;;16.07;12.13;;;;;;;3.94;40.95;99369.09;6977169;28;20204;-82
2022/03/07 05:55:02;;;;;;;16.77;12.27;;;;;;;3.37;41.96;99332.91;6974982;28;20224;-83
2022/03/07 05:58:24;;;;;;;13.83;12.13;;;;;;;4.11;41.42;99362.94;6981284;28;20201;-84
2022/03/07 06:01:47;;;;;;;13.50;11.53;;;;;;;3.76;41.41;99363.72;6980603;28;20271;-83
2022/03/07 06:05:10;;;;;;;15.73;12.57;;;;;;;3.66;41.92;99391.44;6985466;28;20280;-83
2022/03/07 06:08:32;;;;;;;13.67;10.80;;;;;;;4.00;40.65;99355.16;6977612;28;20211;-83
2022/03/07 06:11:53;;;;;;;14.10;10.97;;;;;;;3.99;40.59;99382.81;6999562;28;20215;-83
2022/03/07 06:15:15;;;;;;;12.10;9.33;;;;;;;3.74;40.67;99332.88;7004943;28;20226;-83
2022/03/07 06:18:38;;;;;;;13.33;9.60;;;;;;;3.72;40.43;99338.34;7004923;28;20217;-82
2022/03/07 06:22:00;;;;;;;13.03;9.43;;;;;;;3.74;41.06;99389.72;6981851;28;20232;-84
2022/03/07 06:25:22;;;;;;;11.67;9.83;;;;;;;4.13;40.29;99393.00;6978282;28;20228;-80
2022/03/07 06:28:43;;;;;;;11.27;9.47;;;;;;;3.50;41.42;99391.22;6977981;28;20216;-83
2022/03/07 06:32:06;;;;;;;11.33;9.77;;;;;;;3.51;42.40;99368.91;6978993;28;20577;-83
2022/03/07 06:35:29;;;;;;;11.00;9.17;;;;;;;3.78;40.95;99380.41;6972698;28;20220;-80
2022/03/07 06:38:50;;;;;;;12.80;10.57;;;;;;;3.78;41.31;99379.59;6970733;28;20699;-80
2022/03/07 06:42:12;;;;;;;11.23;9.37;;;;;;;3.70;41.77;99375.00;6970975;28;20224;-80
2022/03/07 06:45:33;;;;;;;12.73;9.37;;;;;;;3.80;40.97;99364.28;6972948;28;20255;-80
2022/03/07 06:48:55;;;;;;;12.77;9.97;;;;;;;3.95;40.81;99384.94;6983306;28;20228;-82
2022/03/07 06:52:18;;;;;;;10.30;9.13;;;;;;;4.46;39.76;99368.28;7008741;28;20255;-81
2022/03/07 06:55:40;;;;;;;12.13;9.43;;;;;;;4.49;38.98;99347.47;7010656;28;20211;-82
2022/03/07 06:59:02;;;;;;;12.77;9.93;;;;;;;4.81;38.83;99352.22;7007716;28;20215;-82
2022/03/07 07:02:23;;;;;;;11.33;9.30;;;;;;;4.53;40.02;99362.19;6982316;28;20255;-83
2022/03/07 07:05:45;;;;;;;11.47;9.17;;;;;;;5.22;38.43;99389.78;6981185;28;20209;-85
2022/03/07 07:09:08;;;;;;;13.17;8.93;;;;;;;5.85;37.19;99403.69;6981857;28;20209;-81
2022/03/07 07:12:30;;;;;;;10.50;8.80;;;;;;;4.85;38.76;99381.16;6979824;28;20227;-81
2022/03/07 07:15:55;;;;;;;11.40;9.63;;;;;;;5.70;37.72;99395.41;6980431;28;20214;-81
2022/03/07 07:19:16;;;;;;;10.30;8.53;;;;;;;6.39;36.89;99400.50;6978642;28;20190;-80
2022/03/07 07:22:38;;;;;;;10.97;8.47;;;;;;;7.12;34.83;99407.59;6979791;28;20317;-82
2022/03/07 07:26:06;;;;;;;12.40;9.70;;;;;;;6.67;35.36;99385.84;6979347;28;20217;-83
2022/03/07 07:29:29;;;;;;;9.87;8.70;;;;;;;6.31;35.16;99352.31;6977456;28;20712;-83
2022/03/07 07:32:51;;;;;;;12.17;9.37;;;;;;;6.30;36.88;99404.19;6972884;28;20704;-85
2022/03/07 07:36:12;;;;;;;11.60;9.20;;;;;;;7.13;34.79;99422.69;6982233;28;20206;-82
2022/03/07 07:39:34;;;;;;;10.83;9.50;;;;;;;6.52;35.69;99401.72;6973114;28;20690;-82
2022/03/07 07:42:57;;;;;;;9.83;8.37;;;;;;;6.74;35.86;99419.00;6978608;28;20226;-82
2022/03/07 07:46:19;;;;;;;9.93;8.93;;;;;;;7.17;35.04;99429.38;6962761;28;20211;-82
2022/03/07 07:49:41;;;;;;;12.43;9.47;;;;;;;6.26;35.50;99402.84;6969648;28;20202;-82
2022/03/07 07:53:03;;;;;;;12.17;8.90;;;;;;;6.86;35.62;99425.69;6977196;28;20708;-82
2022/03/07 07:56:24;;;;;;;14.30;9.00;;;;;;;7.23;34.35;99421.50;6977562;28;20210;-82
2022/03/07 07:59:47;;;;;;;10.47;8.63;;;;;;;7.40;34.26;99431.22;6976602;28;20712;-83
2022/03/07 08:03:09;;;;;;;9.73;8.73;;;;;;;8.35;32.92;99433.78;6980340;28;20275;-82
2022/03/07 08:06:30;;;;;;;9.20;8.30;;;;;;;7.59;32.90;99370.97;6971394;28;20222;-83
2022/03/07 08:09:52;;;;;;;10.97;8.97;;;;;;;5.81;34.18;99362.19;6976919;28;20210;-82
2022/03/07 08:13:14;;;;;;;10.47;9.30;;;;;;;4.84;37.12;99416.06;6977517;28;20270;-82
2022/03/07 08:16:37;;;;;;;10.77;9.00;;;;;;;6.14;35.60;99442.44;6954188;28;20206;-81
2022/03/07 08:19:59;;;;;;;10.47;9.33;;;;;;;7.11;33.87;99447.00;6977452;28;20198;-86
2022/03/07 08:23:21;;;;;;;11.63;9.27;;;;;;;6.27;34.70;99445.53;6977051;28;20230;-83
2022/03/07 08:26:42;;;;;;;10.60;9.50;;;;;;;6.49;35.49;99431.50;6977123;28;20210;-82
2022/03/07 08:30:06;;;;;;;10.50;9.40;;;;;;;8.33;32.30;99433.97;6978282;28;20241;-82
2022/03/07 08:33:31;;;;;;;10.07;8.97;;;;;;;7.78;32.13;99416.22;6976994;28;20233;-81
2022/03/07 08:36:53;;;;;;;11.43;10.27;;;;;;;6.57;33.33;99454.78;6978545;28;20210;-82
2022/03/07 08:40:16;;;;;;;10.07;9.03;;;;;;;7.76;31.82;99456.63;6978365;28;20297;-82
2022/03/07 08:43:37;;;;;;;9.57;8.33;;;;;;;9.01;29.82;99444.81;6961629;28;20603;-81
2022/03/07 08:46:59;;;;;;;9.50;8.50;;;;;;;8.71;30.23;99457.25;6959307;28;20762;-83
2022/03/07 08:50:22;;;;;;;10.37;8.80;;;;;;;8.19;31.34;99460.69;6961537;28;20215;-84
2022/03/07 08:53:44;;;;;;;11.67;9.67;;;;;;;7.18;32.40;99458.72;6956302;28;20361;-83
2022/03/07 08:57:05;;;;;;;10.47;9.37;;;;;;;6.25;32.84;99436.78;6951179;28;20208;-82
2022/03/07 09:00:27;;;;;;;8.97;8.07;;;;;;;6.04;34.22;99467.66;6950641;28;20332;-82
2022/03/07 09:03:49;;;;;;;10.80;9.00;;;;;;;6.48;34.00;99472.69;6950302;28;20230;-83
2022/03/07 09:07:12;;;;;;;11.73;9.13;;;;;;;6.98;32.10;99468.09;6951683;28;20206;-82
2022/03/07 09:10:34;;;;;;;10.10;9.07;;;;;;;6.49;33.33;99468.19;6995821;28;20293;-82
2022/03/07 09:13:55;;;;;;;12.33;9.27;;;;;;;6.10;34.01;99481.25;6981765;28;20218;-82
2022/03/07 09:17:17;;;;;;;10.53;8.80;;;;;;;7.44;33.23;99467.44;6982221;28;20198;-83
2022/03/07 09:20:39;;;;;;;10.80;8.77;;;;;;;8.02;31.34;99459.09;6999084;28;20205;-82
2022/03/07 09:24:01;;;;;;;11.37;9.70;;;;;;;7.88;32.22;99465.16;6982187;28;20237;-83
2022/03/07 09:27:23;;;;;;;12.13;9.30;;;;;;;8.89;29.89;99443.53;6990697;28;20198;-83
2022/03/07 09:30:45;;;;;;;11.03;9.57;;;;;;;6.06;33.77;99465.66;6993240;28;20248;-83
2022/03/07 09:34:06;;;;;;;10.70;9.60;;;;;;;6.07;34.78;99467.34;6991441;28;20226;-83
2022/03/07 09:37:28;;;;;;;12.27;9.80;;;;;;;6.34;34.98;99497.41;6991298;28;20251;-84
2022/03/07 09:40:52;;;;;;;12.17;10.23;;;;;;;5.52;36.32;99506.13;6989816;28;20212;-84
2022/03/07 09:44:14;;;;;;;10.63;9.00;;;;;;;5.99;35.70;99499.41;6986964;28;20233;-84
2022/03/07 09:47:37;;;;;;;11.10;9.90;;;;;;;7.41;33.14;99499.94;6977147;28;20212;-84
2022/03/07 09:50:59;;;;;;;9.90;8.90;;;;;;;6.61;33.99;99475.72;6978211;28;20685;-85
2022/03/07 09:54:21;;;;;;;11.07;9.23;;;;;;;6.46;34.14;99485.41;6978898;28;20249;-85
2022/03/07 09:57:44;;;;;;;11.53;9.83;;;;;;;7.22;33.45;99476.16;6977404;28;20207;-85
2022/03/07 10:01:08;;;;;;;11.17;9.50;;;;;;;7.35;33.76;99473.81;6963566;28;20202;-85
2022/03/07 10:04:30;;;;;;;10.73;9.43;;;;;;;8.82;31.23;99466.75;6948154;28;20227;-84
2022/03/07 10:07:52;;;;;;;11.43;8.50;;;;;;;8.73;31.12;99474.03;6948654;28;20361;-84
2022/03/07 10:11:14;;;;;;;11.53;9.70;;;;;;;8.00;31.39;99488.78;6949206;28;20230;-84
2022/03/07 10:14:42;;;;;;;9.93;8.47;;;;;;;7.64;32.71;99479.47;6971820;28;20666;-84
2022/03/07 10:18:04;;;;;;;10.43;8.50;;;;;;;8.73;30.95;99492.84;6990206;28;20218;-84
2022/03/07 10:21:27;;;;;;;17.90;8.73;;;;;;;7.16;32.25;99489.38;6979090;28;20671;-86
2022/03/07 10:24:58;;;;;;;10.97;8.87;;;;;;;7.62;31.87;99486.00;6984172;28;20285;-84
2022/03/07 10:28:19;;;;;;;10.03;8.90;;;;;;;7.30;32.61;99446.63;6981695;28;20664;-83
2022/03/07 10:31:47;;;;;;;10.43;9.13;;;;;;;8.77;30.78;99477.22;6978142;28;20224;-83
2022/03/07 10:35:11;;;;;;;10.47;8.80;;;;;;;8.71;30.48;99464.50;6977187;28;20260;-84
2022/03/07 10:38:32;;;;;;;11.17;8.93;;;;;;;7.42;31.12;99431.88;6958478;28;20237;-85
2022/03/07 10:41:55;;;;;;;9.97;8.33;;;;;;;8.56;31.01;99495.81;6997213;28;20678;-84
2022/03/07 10:45:17;;;;;;;10.70;9.70;;;;;;;8.41;29.84;99476.06;6984880;28;20221;-84
2022/03/07 10:48:43;;;;;;;9.97;8.93;;;;;;;8.46;30.57;99492.50;6996235;28;20195;-84
2022/03/07 10:52:05;;;;;;;9.83;8.83;;;;;;;8.92;29.81;99459.31;6995753;28;20250;-83
2022/03/07 10:55:30;;;;;;;10.67;9.10;;;;;;;8.90;29.28;99448.72;7004955;28;20216;-85
2022/03/07 10:58:53;;;;;;;13.97;11.07;;;;;;;9.54;30.93;99451.72;7001672;28;20202;-81
2022/03/07 11:02:17;;;;;;;13.90;10.00;;;;;;;8.04;30.37;99479.38;7003001;28;20207;-86
2022/03/07 11:05:42;;;;;;;20.03;11.83;;;;;;;8.07;31.74;99483.56;6987091;28;20226;-81
2022/03/07 11:09:04;;;;;;;10.60;9.43;;;;;;;8.13;31.88;99470.28;6979493;28;20269;-82
2022/03/07 11:12:27;;;;;;;9.83;8.80;;;;;;;7.96;30.17;99483.94;6977791;28;20235;-85
2022/03/07 11:15:49;;;;;;;11.17;8.73;;;;;;;7.55;32.16;99448.28;6984285;28;20198;-83
2022/03/07 11:19:12;;;;;;;10.80;9.33;;;;;;;8.52;30.15;99462.25;7005695;28;20202;-83
2022/03/07 11:22:49;;;;;;;10.90;9.03;;;;;;;9.21;27.90;99450.31;7004321;28;20218;-82
2022/03/07 11:26:11;;;;;;;11.63;9.43;;;;;;;8.64;28.85;99460.81;6992807;28;20218;-83
2022/03/07 11:29:35;;;;;;;10.63;9.50;;;;;;;8.98;28.47;99444.13;7005154;28;20206;-83
2022/03/07 11:32:57;;;;;;;14.70;9.73;;;;;;;7.54;29.93;99448.47;7008367;28;20218;-87
2022/03/07 11:36:20;;;;;;;10.33;9.03;;;;;;;8.00;29.66;99453.03;7015898;28;20216;-81
2022/03/07 11:39:43;;;;;;;11.47;9.53;;;;;;;8.67;28.56;99444.34;7018755;28;20221;-81
2022/03/07 11:43:07;;;;;;;10.30;8.83;;;;;;;8.91;29.67;99404.66;7015100;28;20652;-82
2022/03/07 11:46:31;;;;;;;10.53;9.30;;;;;;;9.10;28.70;99431.91;7018399;28;20205;-81
2022/03/07 11:50:00;;;;;;;10.33;8.77;;;;;;;10.13;28.07;99425.69;7018514;28;20206;-82
2022/03/07 11:53:22;;;;;;;10.97;8.83;;;;;;;10.23;26.44;99426.22;7018661;28;20228;-82
2022/03/07 11:56:44;;;;;;;10.67;9.37;;;;;;;9.67;27.10;99422.31;7017084;28;20213;-87
2022/03/07 12:00:16;;;;;;;9.60;8.33;;;;;;;9.55;27.73;99433.69;7002365;28;20209;-85
2022/03/07 12:03:38;;;;;;;10.53;8.77;;;;;;;10.48;26.13;99423.03;7005999;28;20235;-86
2022/03/07 12:07:00;;;;;;;12.10;9.03;;;;;;;10.93;26.28;99409.19;6999195;28;20209;-85
2022/03/07 12:10:22;;;;;;;9.20;8.30;;;;;;;10.06;26.16;99416.69;7012266;28;20217;-84
2022/03/07 12:13:49;;;;;;;10.53;9.27;;;;;;;9.12;27.37;99332.22;7012234;28;20223;-84
2022/03/07 12:17:12;;;;;;;10.30;9.07;;;;;;;9.66;26.91;99349.78;7012274;28;20198;-85
2022/03/07 12:20:34;;;;;;;11.27;8.27;;;;;;;10.27;26.56;99390.63;7013435;28;20202;-85
2022/03/07 12:23:56;;;;;;;12.37;9.77;;;;;;;8.44;27.50;99401.31;7010839;28;20578;-85
2022/03/07 12:27:18;;;;;;;10.57;8.87;;;;;;;9.23;27.94;99405.28;7011714;28;20202;-86
2022/03/07 12:30:41;;;;;;;10.30;8.63;;;;;;;9.13;27.75;99410.06;7010926;28;20207;-85
2022/03/07 12:34:04;;;;;;;9.77;8.87;;;;;;;9.37;26.71;99339.88;7007426;28;20276;-85
2022/03/07 12:37:28;;;;;;;9.97;8.80;;;;;;;9.31;27.09;99308.31;7009578;28;20340;-84
2022/03/07 12:40:51;;;;;;;10.93;8.73;;;;;;;9.60;26.98;99378.31;7008207;28;20207;-85
2022/03/07 12:44:12;;;;;;;9.97;8.50;;;;;;;9.76;26.53;99388.91;7009178;28;20234;-86
2022/03/07 12:47:37;;;;;;;10.63;9.50;;;;;;;9.78;26.73;99394.94;7008938;28;20368;-85
2022/03/07 12:51:05;;;;;;;10.43;9.37;;;;;;;9.11;26.65;99393.25;7008907;28;20210;-86
2022/03/07 12:54:32;;;;;;;11.67;8.93;;;;;;;8.98;27.01;99373.38;7008975;28;20230;-85
2022/03/07 12:57:58;;;;;;;10.60;9.50;;;;;;;9.21;26.73;99382.25;7008875;28;20217;-85
2022/03/07 13:01:20;;;;;;;11.17;9.73;;;;;;;7.60;29.11;99386.88;7008662;28;20202;-85
2022/03/07 13:04:43;;;;;;;11.17;9.43;;;;;;;7.71;27.98;99289.09;7008193;28;20225;-85
2022/03/07 13:08:05;;;;;;;11.60;9.57;;;;;;;8.04;28.54;99393.44;7008665;28;20206;-84
2022/03/07 13:11:31;;;;;;;11.50;9.30;;;;;;;7.32;27.91;99323.91;7008987;28;20220;-84
2022/03/07 13:14:59;;;;;;;11.27;9.50;;;;;;;9.20;27.36;99364.41;7009228;28;20248;-84
2022/03/07 13:18:22;;;;;;;10.13;9.13;;;;;;;9.21;27.43;99344.59;7008671;28;20208;-84
2022/03/07 13:21:46;;;;;;;11.23;10.03;;;;;;;9.34;26.98;99297.16;7008595;28;20241;-83
2022/03/07 13:25:08;;;;;;;11.30;9.80;;;;;;;9.31;26.58;99354.06;7014822;28;20230;-83
2022/03/07 13:28:32;;;;;;;11.70;9.80;;;;;;;8.92;27.16;99281.81;7010391;28;20204;-88
2022/03/07 13:32:01;;;;;;;10.60;9.50;;;;;;;9.46;26.80;99343.31;7007554;28;20552;-83
2022/03/07 13:35:24;;;;;;;11.03;9.87;;;;;;;9.27;27.40;99355.44;6953285;28;20284;-83
2022/03/07 13:38:47;;;;;;;10.67;9.53;;;;;;;10.15;25.74;99356.28;6952553;28;20200;-83
2022/03/07 13:42:12;;;;;;;10.73;9.63;;;;;;;8.56;27.86;99331.88;6951641;28;20199;-85
2022/03/07 13:45:36;;;;;;;10.70;9.60;;;;;;;8.35;27.75;99268.06;6952312;28;20224;-85
2022/03/07 13:49:06;;;;;;;11.10;10.00;;;;;;;8.73;27.18;99288.53;6954244;28;20203;-84
2022/03/07 13:56:27;;;;;;;10.60;9.50;;;;;;;8.23;28.44;99350.06;6950229;28;20254;-83
2022/03/07 13:59:55;;;;;;;11.60;10.40;;;;;;;8.77;28.62;99311.38;6969428;28;20207;-84
2022/03/07 14:03:17;;;;;;;11.60;9.50;;;;;;;9.31;27.13;99337.06;6976933;28;20218;-83
2022/03/07 14:06:40;;;;;;;10.03;8.93;;;;;;;9.51;27.84;99327.44;6977826;28;20671;-83
2022/03/07 14:10:21;;;;;;;11.00;9.90;;;;;;;9.96;25.83;99319.97;6980502;28;20216;-83
2022/03/07 14:13:46;;;;;;;11.80;10.60;;;;;;;8.59;27.48;99321.59;6990183;28;20362;-84
2022/03/07 14:17:19;;;;;;;12.10;10.20;;;;;;;9.31;27.21;99313.69;6993968;28;20239;-83
2022/03/07 14:20:44;;;;;;;13.73;11.00;;;;;;;9.27;26.97;99258.56;6976347;28;20290;-85
2022/03/07 14:24:09;;;;;;;13.07;10.40;;;;;;;9.42;26.46;99309.69;6998424;28;20234;-84
2022/03/07 14:27:32;;;;;;;10.90;9.80;;;;;;;9.46;25.97;99278.72;7003884;28;20592;-85
2022/03/07 14:31:20;;;;;;;13.63;11.33;;;;;;;9.05;27.17;99291.75;6988901;28;20214;-84
2022/03/07 14:52:01;;;;;;;12.10;10.40;;;;;;;8.39;28.13;99315.03;6888050;28;20193;-86
2022/03/07 14:55:24;;;;;;;14.30;11.10;;;;;;;8.51;27.52;99262.56;6913409;28;20621;-83
2022/03/07 14:58:54;;;;;;;12.07;10.83;;;;;;;9.29;27.67;99323.81;6934673;28;20211;-84
2022/03/07 15:02:44;;;;;;;11.23;10.07;;;;;;;8.96;27.78;99313.53;6990291;28;20232;-81
2022/03/07 15:06:11;;;;;;;12.33;10.63;;;;;;;9.67;26.62;99295.75;7000159;28;20233;-85
2022/03/07 15:09:35;;;;;;;11.97;10.77;;;;;;;9.82;26.59;99242.72;6969384;28;20214;-82
2022/03/07 15:12:56;;;;;;;13.97;11.00;;;;;;;9.37;27.34;99304.88;6977852;28;20219;-80
2022/03/07 15:16:18;;;;;;;13.27;10.37;;;;;;;9.34;27.48;99320.56;6977988;28;20841;-81
2022/03/07 15:19:50;;;;;;;12.60;10.70;;;;;;;8.90;26.49;99271.25;6993666;28;20663;-86
2022/03/07 15:23:17;;;;;;;12.33;11.03;;;;;;;8.99;27.16;99313.19;7007783;28;20232;-83
2022/03/07 15:26:41;;;;;;;12.47;10.53;;;;;;;8.55;28.01;99306.84;7007075;28;20205;-82
2022/03/07 15:30:04;;;;;;;11.87;10.67;;;;;;;9.53;26.76;99304.69;6983379;28;20210;-83
2022/03/07 15:33:25;;;;;;;12.73;10.40;;;;;;;8.65;26.89;99307.44;6982568;28;20233;-84
2022/03/07 15:41:04;;;;;;;11.43;10.23;;;;;;;9.19;26.96;99317.00;6985812;28;20186;-80
2022/03/07 15:44:27;;;;;;;11.90;10.70;;;;;;;9.05;26.95;99285.56;6982440;28;20227;-85
2022/03/07 15:56:04;;;;;;;12.30;11.00;;;;;;;8.79;27.10;99295.06;6890711;28;20196;-85
2022/03/07 16:07:33;;;;;;;13.23;11.23;;;;;;;8.54;27.56;99259.50;6914035;28;20231;-86
2022/03/07 16:10:56;;;;;;;12.73;10.97;;;;;;;8.54;27.57;99269.41;6921552;28;20228;-86
2022/03/07 16:14:18;;;;;;;12.87;11.40;;;;;;;8.37;27.68;99290.19;6924194;28;20228;-86
2022/03/07 16:17:39;;;;;;;11.63;10.37;;;;;;;8.69;27.51;99272.97;6924752;28;20199;-86
2022/03/07 16:21:04;;;;;;;12.90;11.47;;;;;;;8.23;27.68;99242.63;6924387;28;20216;-87
2022/03/07 16:24:27;;;;;;;14.13;11.60;;;;;;;9.01;26.88;99302.25;6919825;28;20240;-86
2022/03/07 16:27:49;;;;;;;14.17;11.53;;;;;;;9.39;26.27;99318.16;6913944;28;20214;-86
2022/03/07 16:31:26;;;;;;;14.80;11.53;;;;;;;9.47;26.29;99321.59;6922921;28;20203;-85
2022/03/07 16:34:48;;;;;;;13.63;12.20;;;;;;;8.72;26.62;99254.63;6928293;28;20720;-85
2022/03/07 16:38:14;;;;;;;13.13;11.30;;;;;;;9.07;26.75;99267.38;6936907;28;20258;-85